Bindloss, Canada
Current Conditions -  °F | °C
As of 3:00 AM on Saturday 29 Nov 2014 (Local Time) from CYXH Reporting Station
Light Snow Light Snow  
Wind Chill: -24°   Ceiling: 2600
Heat Index: -6°   Visibility: 3mi
Dew Point: -9°   Wind: 12mph
Humidity: 84%   Direction: 320°NW
Pressure: 29.8"   Gusts: 17mph
Location:  50.88°N, 110.27°W
Report Text: CYXH 291000Z AUTO 32010G15KT 3SM -SN OVC026 M21/M23 A2980 RMK PCPN 0.6MM PAST HR SLP152
Loading
Personal Weather Stations






























Interactive Weather Map New forecast layout! Learn more

10-Day Weather Forecast

Advertisements
Track Severe Weather on mobile